createdAt,value
2019-02-12T00:00:27.162Z,1018.9
2019-02-12T00:03:57.301Z,1018.94
2019-02-12T00:07:27.403Z,1018.81
2019-02-12T00:10:57.619Z,1019.22
2019-02-12T00:14:27.797Z,1019.3
2019-02-12T00:17:57.876Z,1019.58
2019-02-12T00:21:27.986Z,1019.8
2019-02-12T00:24:58.364Z,1020.29
2019-02-12T00:28:28.273Z,1020.33
2019-02-12T00:31:58.423Z,1020.42
2019-02-12T00:35:28.570Z,1021.1
2019-02-12T00:38:59.603Z,1020.98
2019-02-12T00:42:29.648Z,1022.11
2019-02-12T00:45:59.777Z,1022.64
2019-02-12T00:49:29.926Z,1022.71
2019-02-12T00:53:00.095Z,1023.06
2019-02-12T00:56:30.364Z,1023.17
2019-02-12T01:00:00.433Z,1023.22
2019-02-12T01:03:30.602Z,1023.35
2019-02-12T01:07:00.603Z,1023.2
2019-02-12T01:10:30.622Z,1023.63
2019-02-12T01:14:00.728Z,1023.77
2019-02-12T01:17:30.738Z,1023.37
2019-02-12T01:21:00.887Z,1023.94
2019-02-12T01:24:30.942Z,1023.81
2019-02-12T01:28:01.114Z,1022.89
2019-02-12T01:31:31.077Z,1023.32
2019-02-12T01:35:01.152Z,1023.3
2019-02-12T01:38:31.388Z,1024.11
2019-02-12T01:42:02.449Z,1024.05
2019-02-12T01:45:32.594Z,1024.14
2019-02-12T01:49:02.737Z,1024.53
2019-02-12T01:52:32.816Z,1024.2
2019-02-12T01:56:03.006Z,1023.8
2019-02-12T01:59:33.114Z,1024.12
2019-02-12T02:00:15.836Z,1024.24
2019-02-12T02:03:46.003Z,1024.35
2019-02-12T02:07:16.061Z,1024.06
2019-02-12T02:10:46.230Z,1023.76
2019-02-12T02:14:16.359Z,1023.66
2019-02-12T02:17:46.444Z,1023.76
2019-02-12T02:21:16.598Z,1023.61
2019-02-12T02:24:46.756Z,1023.33
2019-02-12T02:28:16.895Z,1023.37
2019-02-12T02:31:47.094Z,1023.18
2019-02-12T02:35:17.264Z,1023.21
2019-02-12T02:38:47.506Z,1023.27
2019-02-12T02:42:18.660Z,1023.67
2019-02-12T02:45:48.779Z,1023.6
2019-02-12T02:49:19.122Z,1024.01
2019-02-12T02:52:49.328Z,1023.51
2019-02-12T02:56:19.438Z,1023.48
2019-02-12T02:59:49.825Z,1023.51
2019-02-12T03:03:19.884Z,1023.24
2019-02-12T03:06:50.063Z,1023.12
2019-02-12T03:10:20.124Z,1023.19
2019-02-12T03:13:50.241Z,1023.41
2019-02-12T03:17:20.380Z,1023.65
2019-02-12T03:20:50.449Z,1023.15
2019-02-12T03:24:20.487Z,1022.85
2019-02-12T03:27:50.646Z,1022.76
2019-02-12T03:31:20.746Z,1022.95
2019-02-12T03:34:50.904Z,1023.69
2019-02-12T03:38:20.993Z,1023.68
2019-02-12T03:41:51.211Z,1024.1
2019-02-12T03:45:22.307Z,1022.98
2019-02-12T03:48:52.580Z,1022.97
2019-02-12T03:52:22.699Z,1023.07
2019-02-12T03:55:52.827Z,1022.86
2019-02-12T03:59:23.001Z,1022.72
2019-02-12T04:00:16.150Z,1022.82
2019-02-12T04:03:46.385Z,1022.87
2019-02-12T04:07:16.444Z,1023.23
2019-02-12T04:10:46.655Z,1023.42
2019-02-12T04:14:16.751Z,1023.62
2019-02-12T04:17:46.970Z,1023.91
2019-02-12T04:21:17.219Z,1024.29
2019-02-12T04:24:47.361Z,1024.27
2019-02-12T04:28:20.117Z,1024.22
2019-02-12T04:31:50.286Z,1024.06
2019-02-12T04:35:20.466Z,1024.11
2019-02-12T04:38:51.179Z,1024.25
2019-02-12T04:42:21.443Z,1024.58
2019-02-12T04:45:52.483Z,1024.96
2019-02-12T04:49:22.542Z,1025.03
2019-02-12T04:52:52.582Z,1025.18
2019-02-12T04:56:22.725Z,1025.43
2019-02-12T04:59:52.858Z,1025.69
2019-02-12T05:03:22.987Z,1026.06
2019-02-12T05:06:53.179Z,1026.06
2019-02-12T05:10:24.258Z,1026.07
2019-02-12T05:13:54.315Z,1025.91
2019-02-12T05:17:24.343Z,1025.88
2019-02-12T05:20:54.492Z,1025.96
2019-02-12T05:24:24.690Z,1026.05
2019-02-12T05:27:54.739Z,1026.11
2019-02-12T05:31:24.754Z,1026.05
2019-02-12T05:34:55.886Z,1025.68
2019-02-12T05:38:26.257Z,1025.72
2019-02-12T05:41:56.436Z,1025.45
2019-02-12T05:45:26.488Z,1025.45
2019-02-12T05:48:57.597Z,1025.3
2019-02-12T05:52:27.736Z,1025.38
2019-02-12T05:55:57.910Z,1025.43
2019-02-12T05:59:28.040Z,1025.62
2019-02-12T06:00:17.860Z,1025.59
2019-02-12T06:03:47.939Z,1025.5
2019-02-12T06:07:17.937Z,1025.38
2019-02-12T06:10:48.185Z,1024.93
2019-02-12T06:14:18.315Z,1024.91
2019-02-12T06:17:48.524Z,1024.61
2019-02-12T06:21:18.663Z,1023.88
2019-02-12T06:24:48.773Z,1023.42
2019-02-12T06:28:18.830Z,1018.83
2019-02-12T06:31:49.019Z,1016.67
2019-02-12T06:35:19.149Z,1013.9
2019-02-12T06:38:49.218Z,1012.46
2019-02-12T06:42:19.336Z,1010.18
2019-02-12T06:45:49.396Z,1009.46
2019-02-12T06:49:20.485Z,1007.51
2019-02-12T06:52:50.605Z,1006.28
2019-02-12T06:56:20.741Z,1006.19
2019-02-12T06:59:50.940Z,1006.5
2019-02-12T07:03:23.540Z,1006.01
2019-02-12T07:07:37.617Z,1005.27
2019-02-12T07:11:16.399Z,1004.47
2019-02-12T07:14:59.634Z,1004.88
2019-02-12T07:18:47.902Z,1005.1
2019-02-12T07:22:30.884Z,1004.6
2019-02-12T07:26:26.462Z,1003.82
2019-02-12T07:33:02.196Z,1005.32
2019-02-12T07:36:51.425Z,1005.13
2019-02-12T07:41:37.326Z,1005.17
2019-02-12T07:46:45.631Z,1005.14
2019-02-12T07:50:30.420Z,1005.17
2019-02-12T07:54:11.194Z,1004.87
2019-02-12T07:58:52.958Z,1004.18
2019-02-12T08:00:28.366Z,1003.36
2019-02-12T08:04:45.444Z,1003.59
2019-02-12T08:08:44.475Z,1003.25
2019-02-12T08:12:25.423Z,1002.73
2019-02-12T08:16:04.305Z,1002.44
2019-02-12T08:22:51.208Z,1001.63
2019-02-12T08:26:43.615Z,1001.43
2019-02-12T08:33:05.166Z,1001.25
2019-02-12T08:36:49.631Z,1000.85
2019-02-12T08:40:32.632Z,1000.99
2019-02-12T08:44:14.893Z,1001.25
2019-02-12T08:47:58.107Z,1001.4
2019-02-12T08:51:43.332Z,1001.9
2019-02-12T08:56:08.936Z,1002.14
2019-02-12T08:59:49.742Z,1002.74
2019-02-12T09:03:47.571Z,1002.79
2019-02-12T09:07:33.379Z,1002.66
2019-02-12T09:11:30.837Z,1002.85
2019-02-12T09:15:15.136Z,1003.54
2019-02-12T09:18:57.144Z,1004.06
2019-02-12T09:24:16.292Z,1004.9
2019-02-12T09:28:26.621Z,1006.96
2019-02-12T09:32:21.230Z,1008.32
2019-02-12T09:36:07.298Z,1008.87
2019-02-12T09:40:02.367Z,1010.01
2019-02-12T09:45:55.324Z,1009.92
2019-02-12T09:52:48.018Z,1010.66
2019-02-12T09:59:13.460Z,1009.3
2019-02-12T10:00:40.482Z,1009.08
2019-02-12T10:04:24.740Z,1008.15
2019-02-12T10:10:25.425Z,1008.1
2019-02-12T10:14:11.732Z,1008.35
2019-02-12T10:18:39.764Z,1009.15
2019-02-12T10:22:28.075Z,1009.24
2019-02-12T10:26:03.591Z,1009.88
2019-02-12T10:29:51.043Z,1009.74
2019-02-12T10:46:49.475Z,1010.88
2019-02-12T10:50:19.595Z,1011.54
2019-02-12T10:53:50.639Z,1011.89
2019-02-12T10:57:20.813Z,1011.44
2019-02-12T11:00:51.313Z,1010.75
2019-02-12T11:04:21.657Z,1010.79
2019-02-12T11:07:51.921Z,1010.71
2019-02-12T11:11:22.351Z,1010
2019-02-12T11:14:52.430Z,1009.81
2019-02-12T11:18:22.519Z,1008.68
2019-02-12T11:21:52.658Z,1008.81
2019-02-12T11:25:22.607Z,1008.52
2019-02-12T11:28:52.727Z,1008.19
2019-02-12T11:32:22.716Z,1008.04
2019-02-12T11:35:52.865Z,1008.35
2019-02-12T11:39:22.986Z,1008.56
2019-02-12T11:42:53.164Z,1008.44
2019-02-12T11:46:23.273Z,1008.5
2019-02-12T11:49:53.312Z,1008.65
2019-02-12T11:53:23.492Z,1008.51
2019-02-12T11:56:54.680Z,1008.68
2019-02-12T12:00:19.916Z,1009.07
2019-02-12T12:03:49.990Z,1009.3
2019-02-12T12:07:20.153Z,1009.36
2019-02-12T12:10:50.252Z,1009.89
2019-02-12T12:14:20.377Z,1010.19
2019-02-12T12:17:50.546Z,1009.86
2019-02-12T12:21:20.658Z,1009.91
2019-02-12T12:24:51.660Z,1009.45
2019-02-12T12:28:21.870Z,1009.11
2019-02-12T12:31:52.063Z,1009.35
2019-02-12T12:35:22.155Z,1009.56
2019-02-12T12:38:52.472Z,1009.11
2019-02-12T12:42:22.591Z,1009.04
2019-02-12T12:45:52.830Z,1008.67
2019-02-12T12:49:22.959Z,1008.67
2019-02-12T12:52:53.029Z,1008.59
2019-02-12T12:56:23.098Z,1008.31
2019-02-12T12:59:54.142Z,1008.16
2019-02-12T13:03:24.423Z,1007.96
2019-02-12T13:06:54.460Z,1008.39
2019-02-12T13:10:24.436Z,1008.1
2019-02-12T13:13:54.664Z,1008.14
2019-02-12T13:17:24.733Z,1008.28
2019-02-12T13:20:54.884Z,1008.68
2019-02-12T13:24:25.032Z,1008.7
2019-02-12T13:27:55.142Z,1008.97
2019-02-12T13:31:25.362Z,1009.1
2019-02-12T13:34:55.470Z,1009.9
2019-02-12T13:38:25.569Z,1009.89
2019-02-12T13:41:55.898Z,1010.55
2019-02-12T13:45:26.098Z,1011.45
2019-02-12T13:48:56.267Z,1010.87
2019-02-12T13:52:26.326Z,1010.9
2019-02-12T13:55:56.445Z,1011.08
2019-02-12T13:59:26.525Z,1011.21
2019-02-12T14:00:18.476Z,1011.34
2019-02-12T14:03:48.695Z,1011.56
2019-02-12T14:07:18.893Z,1011.63
2019-02-12T14:10:49.013Z,1012.05
2019-02-12T14:14:19.565Z,1012.11
2019-02-12T14:17:49.882Z,1011.85
2019-02-12T14:21:19.991Z,1012.01
2019-02-12T14:24:50.109Z,1012.15
2019-02-12T14:28:20.179Z,1012.17
2019-02-12T14:31:53.053Z,1012.25
2019-02-12T14:35:23.358Z,1011.51
2019-02-12T14:38:53.604Z,1010.11
2019-02-12T14:42:23.646Z,1008.3
2019-02-12T14:45:53.926Z,1007.51
2019-02-12T14:49:23.985Z,1006.48
2019-02-12T14:52:54.034Z,1006.22
2019-02-12T14:56:24.083Z,1005.52
2019-02-12T14:59:54.213Z,1005.06
2019-02-12T15:03:25.211Z,1004.49
2019-02-12T15:06:55.381Z,1004.39
2019-02-12T15:10:25.530Z,1003.94
2019-02-12T15:13:55.779Z,1003.69
2019-02-12T15:17:25.835Z,1003.11
2019-02-12T15:20:55.858Z,1002.79
2019-02-12T15:24:25.898Z,1002.87
2019-02-12T15:27:56.056Z,1002.67
2019-02-12T15:31:26.156Z,1002.33
2019-02-12T15:34:56.274Z,1002.59
2019-02-12T15:38:26.353Z,1002.27
2019-02-12T15:41:56.493Z,1002.07
2019-02-12T15:45:26.512Z,1001.93
2019-02-12T15:48:56.581Z,1001.51
2019-02-12T15:52:26.630Z,1001.43
2019-02-12T15:55:56.729Z,1001.24
2019-02-12T15:59:26.778Z,1000.96
2019-02-12T16:00:17.742Z,1000.89
2019-02-12T16:03:49.547Z,1000.68
2019-02-12T16:07:20.475Z,1000.51
2019-02-12T16:10:52.128Z,1000.24
2019-02-12T16:14:22.276Z,999.92
2019-02-12T16:17:52.324Z,999.78
2019-02-12T16:21:22.403Z,999.48
2019-02-12T16:24:52.471Z,999.46
2019-02-12T16:28:22.481Z,999.15
2019-02-12T16:31:52.701Z,999.11
2019-02-12T16:35:22.860Z,999.19
2019-02-12T16:38:53.049Z,998.89
2019-02-12T16:42:23.178Z,998.84
2019-02-12T16:46:00.951Z,999.19
2019-02-12T16:49:31.057Z,999.13
2019-02-12T16:53:01.175Z,999
2019-02-12T16:56:31.346Z,998.61
2019-02-12T17:00:02.014Z,998.76
2019-02-12T17:03:32.163Z,998.41
2019-02-12T17:07:03.882Z,998.55
2019-02-12T17:10:33.911Z,998.52
2019-02-12T17:14:04.240Z,999.02
2019-02-12T17:17:34.439Z,998.78
2019-02-12T17:21:04.559Z,998.6
2019-02-12T17:24:34.668Z,998.78
2019-02-12T17:28:04.866Z,998.6
2019-02-12T17:31:34.956Z,998.34
2019-02-12T17:35:05.175Z,998.23
2019-02-12T17:38:35.313Z,998.09
2019-02-12T17:42:05.514Z,998.04
2019-02-12T17:45:35.762Z,997.56
2019-02-12T17:49:05.934Z,997.92
2019-02-12T17:52:35.902Z,997.68
2019-02-12T17:56:06.029Z,997.47
2019-02-12T17:59:36.098Z,997.32
2019-02-12T18:00:18.258Z,997.19
2019-02-12T18:03:48.537Z,997.41
2019-02-12T18:07:19.566Z,996.8
2019-02-12T18:10:49.665Z,997.01
2019-02-12T18:14:19.745Z,996.82
2019-02-12T18:17:49.934Z,996.67
2019-02-12T18:21:20.013Z,997.13
2019-02-12T18:24:50.152Z,997.18
2019-02-12T18:28:20.211Z,996.89
2019-02-12T18:31:50.370Z,996.73
2019-02-12T18:35:20.649Z,996.6
2019-02-12T18:38:50.738Z,996.86
2019-02-12T18:42:20.897Z,996.88
2019-02-12T18:45:51.016Z,996.81
2019-02-12T18:49:21.146Z,996.74
2019-02-12T18:52:51.236Z,996.56
2019-02-12T18:56:21.313Z,996.61
2019-02-12T18:59:51.323Z,997.07
2019-02-12T19:03:21.583Z,996.94
2019-02-12T19:06:51.991Z,996.84
2019-02-12T19:10:23.223Z,996.04
2019-02-12T19:13:53.259Z,996.7
2019-02-12T19:17:23.378Z,996.42
2019-02-12T19:20:53.517Z,996.31
2019-02-12T19:24:23.726Z,996.43
2019-02-12T19:27:53.783Z,995.52
2019-02-12T19:31:24.020Z,995.8
2019-02-12T19:34:54.183Z,996
2019-02-12T19:38:24.312Z,996.04
2019-02-12T19:41:54.417Z,995.66
2019-02-12T19:45:24.471Z,996.16
2019-02-12T19:48:54.621Z,995.66
2019-02-12T19:52:24.729Z,996.06
2019-02-12T19:55:54.968Z,996.08
2019-02-12T19:59:25.077Z,995.7
2019-02-12T20:00:19.348Z,995.65
2019-02-12T20:03:49.586Z,995.66
2019-02-12T20:07:19.615Z,995.8
2019-02-12T20:10:50.744Z,996
2019-02-12T20:14:20.914Z,995.75
2019-02-12T20:17:51.090Z,996.09
2019-02-12T20:21:21.171Z,996.09
2019-02-12T20:24:51.262Z,996.11
2019-02-12T20:28:21.289Z,996.12
2019-02-12T20:31:51.380Z,996.14
2019-02-12T20:35:21.568Z,996.04
2019-02-12T20:38:51.667Z,996.28
2019-02-12T20:42:21.816Z,996.91
2019-02-12T20:45:52.027Z,997.2
2019-02-12T20:49:21.996Z,997.44
2019-02-12T20:52:52.023Z,997.73
2019-02-12T20:56:22.163Z,997.95
2019-02-12T20:59:52.268Z,998.31
2019-02-12T21:03:22.390Z,998.58
2019-02-12T21:06:52.450Z,999.02
2019-02-12T21:10:22.571Z,999.22
2019-02-12T21:13:53.599Z,999.89
2019-02-12T21:17:23.647Z,1000.44
2019-02-12T21:20:53.746Z,1000.98
2019-02-12T21:24:23.755Z,1001.45
2019-02-12T21:27:53.965Z,1001.74
2019-02-12T21:31:24.134Z,1001.5
2019-02-12T21:34:54.293Z,1000.65
2019-02-12T21:38:24.383Z,999.83
2019-02-12T21:41:54.702Z,998.79
2019-02-12T21:45:24.832Z,998.18
2019-02-12T21:48:54.940Z,997.56
2019-02-12T21:52:25.059Z,997.06
2019-02-12T21:55:55.050Z,996.71
2019-02-12T21:59:25.129Z,996.48
2019-02-12T22:00:16.567Z,996.55
2019-02-12T22:03:46.765Z,996.12
2019-02-12T22:07:17.001Z,995.53
2019-02-12T22:10:47.159Z,995.48
2019-02-12T22:14:18.213Z,995.61
2019-02-12T22:17:48.253Z,996.27
2019-02-12T22:21:18.482Z,996.42
2019-02-12T22:24:48.594Z,996.99
2019-02-12T22:28:18.760Z,997.47
2019-02-12T22:31:48.911Z,997.92
2019-02-12T22:35:19.138Z,998.42
2019-02-12T22:38:49.277Z,998.81
2019-02-12T22:42:19.436Z,999.19
2019-02-12T22:45:49.545Z,998.64
2019-02-12T22:49:19.585Z,997.61
2019-02-12T22:52:49.654Z,997.06
2019-02-12T22:56:19.703Z,996.9
2019-02-12T22:59:49.942Z,996.41
2019-02-12T23:03:20.283Z,995.82
2019-02-12T23:06:50.427Z,995.53
2019-02-12T23:10:20.519Z,995.53
2019-02-12T23:13:50.732Z,995.59
2019-02-12T23:17:22.398Z,995.28
2019-02-12T23:20:52.447Z,995.34
2019-02-12T23:24:22.492Z,995.25
2019-02-12T23:27:57.553Z,995.12
2019-02-12T23:31:28.014Z,994.98
2019-02-12T23:34:58.253Z,994.04
2019-02-12T23:38:28.372Z,994.38
2019-02-12T23:41:58.421Z,994.12
2019-02-12T23:45:28.490Z,993.92
2019-02-12T23:48:58.709Z,994.02
2019-02-12T23:52:28.816Z,993.88
2019-02-12T23:55:58.920Z,993.87
2019-02-12T23:59:28.935Z,993.76
